sensor_id;sensor_type;location;lat;lon;timestamp;P1;durP1;ratioP1;P2;durP2;ratioP2
23346;SDS011;36852;45.466;11.066;2023-02-01T00:00:44;68.40;;;37.17;;
23346;SDS011;36852;45.466;11.066;2023-02-01T00:03:11;62.00;;;33.80;;
23346;SDS011;36852;45.466;11.066;2023-02-01T00:05:40;61.65;;;32.95;;
23346;SDS011;36852;45.466;11.066;2023-02-01T00:08:08;58.05;;;32.83;;
23346;SDS011;36852;45.466;11.066;2023-02-01T00:10:42;62.83;;;33.73;;
23346;SDS011;36852;45.466;11.066;2023-02-01T00:16:20;65.87;;;35.13;;
23346;SDS011;36852;45.466;11.066;2023-02-01T00:18:50;63.42;;;34.85;;
23346;SDS011;36852;45.466;11.066;2023-02-01T00:21:21;66.42;;;35.83;;
23346;SDS011;36852;45.466;11.066;2023-02-01T00:26:36;79.07;;;41.50;;
23346;SDS011;36852;45.466;11.066;2023-02-01T00:29:14;77.92;;;40.73;;
23346;SDS011;36852;45.466;11.066;2023-02-01T00:34:25;55.65;;;31.23;;
23346;SDS011;36852;45.466;11.066;2023-02-01T00:36:54;67.72;;;36.88;;
23346;SDS011;36852;45.466;11.066;2023-02-01T00:42:05;72.35;;;39.85;;
23346;SDS011;36852;45.466;11.066;2023-02-01T00:44:33;76.82;;;40.65;;
23346;SDS011;36852;45.466;11.066;2023-02-01T00:47:06;77.22;;;40.73;;
23346;SDS011;36852;45.466;11.066;2023-02-01T00:49:34;71.00;;;39.75;;
23346;SDS011;36852;45.466;11.066;2023-02-01T00:54:38;86.08;;;43.85;;
23346;SDS011;36852;45.466;11.066;2023-02-01T00:57:05;82.37;;;43.63;;
23346;SDS011;36852;45.466;11.066;2023-02-01T00:59:37;74.92;;;40.17;;
23346;SDS011;36852;45.466;11.066;2023-02-01T01:02:05;68.52;;;36.28;;
23346;SDS011;36852;45.466;11.066;2023-02-01T01:04:33;63.80;;;33.73;;
23346;SDS011;36852;45.466;11.066;2023-02-01T01:07:06;69.30;;;36.58;;
23346;SDS011;36852;45.466;11.066;2023-02-01T01:09:35;64.47;;;34.48;;
23346;SDS011;36852;45.466;11.066;2023-02-01T01:12:18;65.45;;;34.95;;
23346;SDS011;36852;45.466;11.066;2023-02-01T01:14:52;68.35;;;35.50;;
23346;SDS011;36852;45.466;11.066;2023-02-01T01:17:20;63.52;;;33.13;;
23346;SDS011;36852;45.466;11.066;2023-02-01T01:19:49;65.57;;;36.60;;
23346;SDS011;36852;45.466;11.066;2023-02-01T01:24:55;74.37;;;39.95;;
23346;SDS011;36852;45.466;11.066;2023-02-01T01:27:42;65.83;;;36.45;;
23346;SDS011;36852;45.466;11.066;2023-02-01T01:30:10;66.17;;;35.05;;
23346;SDS011;36852;45.466;11.066;2023-02-01T01:32:42;63.70;;;34.73;;
23346;SDS011;36852;45.466;11.066;2023-02-01T01:35:10;58.90;;;32.42;;
23346;SDS011;36852;45.466;11.066;2023-02-01T01:37:39;55.73;;;30.82;;
23346;SDS011;36852;45.466;11.066;2023-02-01T01:40:07;56.15;;;31.35;;
23346;SDS011;36852;45.466;11.066;2023-02-01T01:42:38;57.43;;;32.90;;
23346;SDS011;36852;45.466;11.066;2023-02-01T01:50:35;53.65;;;31.15;;
23346;SDS011;36852;45.466;11.066;2023-02-01T01:53:09;60.63;;;31.20;;
23346;SDS011;36852;45.466;11.066;2023-02-01T01:58:26;65.52;;;33.95;;
23346;SDS011;36852;45.466;11.066;2023-02-01T02:00:56;65.30;;;33.92;;
23346;SDS011;36852;45.466;11.066;2023-02-01T02:03:25;60.05;;;33.33;;
23346;SDS011;36852;45.466;11.066;2023-02-01T02:08:51;69.72;;;35.40;;
23346;SDS011;36852;45.466;11.066;2023-02-01T02:14:24;68.35;;;36.68;;
23346;SDS011;36852;45.466;11.066;2023-02-01T02:17:15;70.35;;;38.55;;
23346;SDS011;36852;45.466;11.066;2023-02-01T02:22:54;81.53;;;40.88;;
23346;SDS011;36852;45.466;11.066;2023-02-01T02:39:11;76.28;;;40.35;;
23346;SDS011;36852;45.466;11.066;2023-02-01T02:50:25;68.40;;;38.08;;
23346;SDS011;36852;45.466;11.066;2023-02-01T02:53:17;67.42;;;37.28;;
23346;SDS011;36852;45.466;11.066;2023-02-01T02:56:11;72.47;;;39.45;;
23346;SDS011;36852;45.466;11.066;2023-02-01T02:58:58;73.65;;;39.78;;
23346;SDS011;36852;45.466;11.066;2023-02-01T03:01:48;77.40;;;40.75;;
23346;SDS011;36852;45.466;11.066;2023-02-01T03:04:34;70.28;;;37.93;;
23346;SDS011;36852;45.466;11.066;2023-02-01T03:09:46;67.55;;;36.65;;
23346;SDS011;36852;45.466;11.066;2023-02-01T03:12:17;69.70;;;38.60;;
23346;SDS011;36852;45.466;11.066;2023-02-01T03:15:08;59.93;;;35.50;;
23346;SDS011;36852;45.466;11.066;2023-02-01T03:17:41;67.17;;;36.97;;
23346;SDS011;36852;45.466;11.066;2023-02-01T03:20:14;67.67;;;36.28;;
23346;SDS011;36852;45.466;11.066;2023-02-01T03:22:46;68.72;;;35.60;;
23346;SDS011;36852;45.466;11.066;2023-02-01T03:25:25;61.83;;;33.78;;
23346;SDS011;36852;45.466;11.066;2023-02-01T03:27:57;62.27;;;33.13;;
23346;SDS011;36852;45.466;11.066;2023-02-01T03:30:28;63.70;;;35.05;;
23346;SDS011;36852;45.466;11.066;2023-02-01T03:53:02;85.92;;;44.45;;
23346;SDS011;36852;45.466;11.066;2023-02-01T03:58:22;73.60;;;41.25;;
23346;SDS011;36852;45.466;11.066;2023-02-01T04:00:53;76.95;;;42.60;;
23346;SDS011;36852;45.466;11.066;2023-02-01T04:03:24;73.67;;;38.73;;
23346;SDS011;36852;45.466;11.066;2023-02-01T04:05:55;76.42;;;40.00;;
23346;SDS011;36852;45.466;11.066;2023-02-01T04:08:25;70.52;;;39.55;;
23346;SDS011;36852;45.466;11.066;2023-02-01T04:10:56;71.33;;;39.88;;
23346;SDS011;36852;45.466;11.066;2023-02-01T04:13:24;66.70;;;37.85;;
23346;SDS011;36852;45.466;11.066;2023-02-01T04:15:53;75.03;;;40.45;;
23346;SDS011;36852;45.466;11.066;2023-02-01T04:18:22;78.90;;;40.60;;
23346;SDS011;36852;45.466;11.066;2023-02-01T04:21:03;84.58;;;42.67;;
23346;SDS011;36852;45.466;11.066;2023-02-01T04:23:31;80.32;;;43.40;;
23346;SDS011;36852;45.466;11.066;2023-02-01T04:26:03;79.92;;;41.92;;
23346;SDS011;36852;45.466;11.066;2023-02-01T04:28:40;77.82;;;42.00;;
23346;SDS011;36852;45.466;11.066;2023-02-01T04:31:08;75.85;;;42.15;;
23346;SDS011;36852;45.466;11.066;2023-02-01T04:36:11;79.47;;;41.45;;
23346;SDS011;36852;45.466;11.066;2023-02-01T04:38:40;76.10;;;40.33;;
23346;SDS011;36852;45.466;11.066;2023-02-01T04:41:09;76.20;;;40.10;;
23346;SDS011;36852;45.466;11.066;2023-02-01T04:43:37;75.37;;;40.98;;
23346;SDS011;36852;45.466;11.066;2023-02-01T04:46:07;71.82;;;38.50;;
23346;SDS011;36852;45.466;11.066;2023-02-01T04:48:35;70.87;;;38.83;;
23346;SDS011;36852;45.466;11.066;2023-02-01T04:51:04;71.00;;;39.15;;
23346;SDS011;36852;45.466;11.066;2023-02-01T04:53:35;79.60;;;39.60;;
23346;SDS011;36852;45.466;11.066;2023-02-01T04:56:05;76.42;;;38.02;;
23346;SDS011;36852;45.466;11.066;2023-02-01T04:58:37;68.60;;;37.15;;
23346;SDS011;36852;45.466;11.066;2023-02-01T05:01:05;73.95;;;38.02;;
23346;SDS011;36852;45.466;11.066;2023-02-01T05:03:34;74.00;;;38.45;;
23346;SDS011;36852;45.466;11.066;2023-02-01T05:06:05;71.90;;;37.40;;
23346;SDS011;36852;45.466;11.066;2023-02-01T05:08:36;68.87;;;36.25;;
23346;SDS011;36852;45.466;11.066;2023-02-01T05:11:17;72.10;;;36.80;;
23346;SDS011;36852;45.466;11.066;2023-02-01T05:14:09;66.95;;;36.20;;
23346;SDS011;36852;45.466;11.066;2023-02-01T05:16:38;76.87;;;38.65;;
23346;SDS011;36852;45.466;11.066;2023-02-01T05:19:05;70.03;;;37.17;;
23346;SDS011;36852;45.466;11.066;2023-02-01T05:21:36;65.45;;;36.68;;
23346;SDS011;36852;45.466;11.066;2023-02-01T05:24:05;73.45;;;37.17;;
23346;SDS011;36852;45.466;11.066;2023-02-01T05:26:59;69.03;;;35.83;;
23346;SDS011;36852;45.466;11.066;2023-02-01T05:29:28;70.75;;;36.20;;
23346;SDS011;36852;45.466;11.066;2023-02-01T05:31:57;65.42;;;33.65;;
23346;SDS011;36852;45.466;11.066;2023-02-01T05:34:26;63.78;;;33.75;;
23346;SDS011;36852;45.466;11.066;2023-02-01T05:39:55;66.92;;;35.35;;
23346;SDS011;36852;45.466;11.066;2023-02-01T05:42:23;70.32;;;37.55;;
23346;SDS011;36852;45.466;11.066;2023-02-01T05:44:52;66.02;;;35.50;;
23346;SDS011;36852;45.466;11.066;2023-02-01T05:47:20;67.58;;;36.48;;
23346;SDS011;36852;45.466;11.066;2023-02-01T05:55:19;64.42;;;35.55;;
23346;SDS011;36852;45.466;11.066;2023-02-01T05:57:47;62.88;;;32.67;;
23346;SDS011;36852;45.466;11.066;2023-02-01T06:00:19;63.35;;;33.00;;
23346;SDS011;36852;45.466;11.066;2023-02-01T06:02:48;59.70;;;34.30;;
23346;SDS011;36852;45.466;11.066;2023-02-01T06:05:19;63.90;;;33.85;;
23346;SDS011;36852;45.466;11.066;2023-02-01T06:07:48;67.00;;;35.40;;
23346;SDS011;36852;45.466;11.066;2023-02-01T06:10:17;65.60;;;34.35;;
23346;SDS011;36852;45.466;11.066;2023-02-01T06:18:11;70.03;;;36.20;;
23346;SDS011;36852;45.466;11.066;2023-02-01T06:20:39;67.03;;;35.58;;
23346;SDS011;36852;45.466;11.066;2023-02-01T06:23:10;69.20;;;35.75;;
23346;SDS011;36852;45.466;11.066;2023-02-01T06:25:37;67.87;;;36.20;;
23346;SDS011;36852;45.466;11.066;2023-02-01T06:28:13;69.12;;;37.53;;
23346;SDS011;36852;45.466;11.066;2023-02-01T06:30:40;70.80;;;37.93;;
23346;SDS011;36852;45.466;11.066;2023-02-01T06:33:10;72.10;;;38.65;;
23346;SDS011;36852;45.466;11.066;2023-02-01T06:35:38;75.67;;;38.60;;
23346;SDS011;36852;45.466;11.066;2023-02-01T06:38:06;74.15;;;38.85;;
23346;SDS011;36852;45.466;11.066;2023-02-01T06:40:35;72.27;;;38.23;;
23346;SDS011;36852;45.466;11.066;2023-02-01T06:43:04;70.90;;;38.92;;
23346;SDS011;36852;45.466;11.066;2023-02-01T06:45:35;73.67;;;39.53;;
23346;SDS011;36852;45.466;11.066;2023-02-01T06:48:06;74.42;;;38.88;;
23346;SDS011;36852;45.466;11.066;2023-02-01T06:50:34;69.07;;;38.83;;
23346;SDS011;36852;45.466;11.066;2023-02-01T06:53:03;71.37;;;39.48;;
23346;SDS011;36852;45.466;11.066;2023-02-01T07:03:39;68.90;;;38.90;;
23346;SDS011;36852;45.466;11.066;2023-02-01T07:06:08;70.32;;;38.33;;
23346;SDS011;36852;45.466;11.066;2023-02-01T07:08:38;73.78;;;40.33;;
23346;SDS011;36852;45.466;11.066;2023-02-01T07:11:07;73.70;;;39.92;;
23346;SDS011;36852;45.466;11.066;2023-02-01T07:16:13;77.35;;;40.50;;
23346;SDS011;36852;45.466;11.066;2023-02-01T07:21:30;83.05;;;42.55;;
23346;SDS011;36852;45.466;11.066;2023-02-01T07:23:58;78.47;;;42.60;;
23346;SDS011;36852;45.466;11.066;2023-02-01T07:26:26;82.57;;;44.53;;
23346;SDS011;36852;45.466;11.066;2023-02-01T07:28:54;86.42;;;41.77;;
23346;SDS011;36852;45.466;11.066;2023-02-01T07:31:22;83.78;;;44.33;;
23346;SDS011;36852;45.466;11.066;2023-02-01T07:33:55;77.67;;;42.08;;
23346;SDS011;36852;45.466;11.066;2023-02-01T07:36:25;71.95;;;39.70;;
23346;SDS011;36852;45.466;11.066;2023-02-01T07:38:53;82.02;;;42.33;;
23346;SDS011;36852;45.466;11.066;2023-02-01T07:41:22;81.35;;;43.33;;
23346;SDS011;36852;45.466;11.066;2023-02-01T07:43:53;86.08;;;44.83;;
23346;SDS011;36852;45.466;11.066;2023-02-01T07:46:22;82.15;;;43.40;;
23346;SDS011;36852;45.466;11.066;2023-02-01T07:48:51;79.50;;;41.90;;
23346;SDS011;36852;45.466;11.066;2023-02-01T07:51:19;75.55;;;40.45;;
23346;SDS011;36852;45.466;11.066;2023-02-01T07:56:34;74.97;;;41.20;;
23346;SDS011;36852;45.466;11.066;2023-02-01T07:59:03;70.42;;;39.53;;
23346;SDS011;36852;45.466;11.066;2023-02-01T08:01:31;80.38;;;41.02;;
23346;SDS011;36852;45.466;11.066;2023-02-01T08:04:00;84.20;;;41.75;;
23346;SDS011;36852;45.466;11.066;2023-02-01T08:06:33;81.95;;;41.33;;
23346;SDS011;36852;45.466;11.066;2023-02-01T08:09:02;82.95;;;44.05;;
23346;SDS011;36852;45.466;11.066;2023-02-01T08:11:30;84.20;;;42.53;;
23346;SDS011;36852;45.466;11.066;2023-02-01T08:13:59;80.00;;;44.93;;
23346;SDS011;36852;45.466;11.066;2023-02-01T08:16:27;75.67;;;43.05;;
23346;SDS011;36852;45.466;11.066;2023-02-01T08:18:56;76.87;;;43.52;;
23346;SDS011;36852;45.466;11.066;2023-02-01T08:21:25;94.20;;;43.87;;
23346;SDS011;36852;45.466;11.066;2023-02-01T08:23:56;81.25;;;44.77;;
23346;SDS011;36852;45.466;11.066;2023-02-01T08:26:25;89.13;;;47.03;;
23346;SDS011;36852;45.466;11.066;2023-02-01T08:28:58;86.78;;;46.83;;
23346;SDS011;36852;45.466;11.066;2023-02-01T08:34:02;90.40;;;47.85;;
23346;SDS011;36852;45.466;11.066;2023-02-01T08:36:34;83.33;;;46.42;;
23346;SDS011;36852;45.466;11.066;2023-02-01T08:39:02;86.70;;;47.50;;
23346;SDS011;36852;45.466;11.066;2023-02-01T08:41:31;86.30;;;46.30;;
23346;SDS011;36852;45.466;11.066;2023-02-01T08:44:00;85.28;;;45.55;;
23346;SDS011;36852;45.466;11.066;2023-02-01T08:46:27;89.55;;;46.40;;
23346;SDS011;36852;45.466;11.066;2023-02-01T08:48:55;85.20;;;44.65;;
23346;SDS011;36852;45.466;11.066;2023-02-01T08:51:23;82.02;;;45.35;;
23346;SDS011;36852;45.466;11.066;2023-02-01T08:53:50;80.57;;;43.83;;
23346;SDS011;36852;45.466;11.066;2023-02-01T08:59:13;81.02;;;45.73;;
23346;SDS011;36852;45.466;11.066;2023-02-01T09:01:40;74.70;;;41.23;;
23346;SDS011;36852;45.466;11.066;2023-02-01T09:04:08;76.50;;;43.00;;
23346;SDS011;36852;45.466;11.066;2023-02-01T09:06:36;78.12;;;41.90;;
23346;SDS011;36852;45.466;11.066;2023-02-01T09:09:03;81.12;;;42.35;;
23346;SDS011;36852;45.466;11.066;2023-02-01T09:11:31;78.28;;;42.75;;
23346;SDS011;36852;45.466;11.066;2023-02-01T09:14:00;82.57;;;43.83;;
23346;SDS011;36852;45.466;11.066;2023-02-01T09:16:28;79.95;;;44.05;;
23346;SDS011;36852;45.466;11.066;2023-02-01T09:21:36;83.92;;;43.55;;
23346;SDS011;36852;45.466;11.066;2023-02-01T09:27:00;78.92;;;43.58;;
23346;SDS011;36852;45.466;11.066;2023-02-01T09:29:28;74.77;;;43.73;;
23346;SDS011;36852;45.466;11.066;2023-02-01T09:34:48;79.62;;;42.58;;
23346;SDS011;36852;45.466;11.066;2023-02-01T09:37:16;81.05;;;44.13;;
23346;SDS011;36852;45.466;11.066;2023-02-01T09:39:45;82.90;;;45.70;;
23346;SDS011;36852;45.466;11.066;2023-02-01T09:45:15;85.55;;;45.08;;
23346;SDS011;36852;45.466;11.066;2023-02-01T09:47:45;84.77;;;47.45;;
23346;SDS011;36852;45.466;11.066;2023-02-01T09:50:17;92.60;;;48.60;;
23346;SDS011;36852;45.466;11.066;2023-02-01T09:52:55;90.12;;;51.13;;
23346;SDS011;36852;45.466;11.066;2023-02-01T10:00:56;93.72;;;52.17;;
23346;SDS011;36852;45.466;11.066;2023-02-01T10:08:44;97.50;;;54.35;;
23346;SDS011;36852;45.466;11.066;2023-02-01T10:17:18;105.25;;;56.68;;
23346;SDS011;36852;45.466;11.066;2023-02-01T10:19:55;107.45;;;57.53;;
23346;SDS011;36852;45.466;11.066;2023-02-01T10:22:28;102.85;;;55.30;;
23346;SDS011;36852;45.466;11.066;2023-02-01T10:25:21;104.80;;;56.08;;
23346;SDS011;36852;45.466;11.066;2023-02-01T10:27:54;108.00;;;58.95;;
23346;SDS011;36852;45.466;11.066;2023-02-01T10:30:25;106.15;;;58.13;;
23346;SDS011;36852;45.466;11.066;2023-02-01T10:33:07;105.72;;;57.08;;
23346;SDS011;36852;45.466;11.066;2023-02-01T10:35:35;106.55;;;60.75;;
23346;SDS011;36852;45.466;11.066;2023-02-01T10:38:03;109.87;;;61.58;;
23346;SDS011;36852;45.466;11.066;2023-02-01T10:40:34;111.42;;;60.12;;
23346;SDS011;36852;45.466;11.066;2023-02-01T10:43:04;120.55;;;62.08;;
23346;SDS011;36852;45.466;11.066;2023-02-01T10:45:32;100.50;;;56.73;;
23346;SDS011;36852;45.466;11.066;2023-02-01T10:48:00;110.08;;;62.58;;
23346;SDS011;36852;45.466;11.066;2023-02-01T10:53:24;123.22;;;63.63;;
23346;SDS011;36852;45.466;11.066;2023-02-01T10:56:12;115.08;;;64.72;;
23346;SDS011;36852;45.466;11.066;2023-02-01T10:58:44;110.50;;;60.00;;
23346;SDS011;36852;45.466;11.066;2023-02-01T11:01:57;112.68;;;63.58;;
23346;SDS011;36852;45.466;11.066;2023-02-01T11:03:52;122.00;;;64.45;;
23346;SDS011;36852;45.466;11.066;2023-02-01T11:11:27;118.02;;;63.17;;
23346;SDS011;36852;45.466;11.066;2023-02-01T11:13:57;118.90;;;63.42;;
23346;SDS011;36852;45.466;11.066;2023-02-01T11:16:28;117.62;;;64.82;;
23346;SDS011;36852;45.466;11.066;2023-02-01T11:19:01;105.52;;;61.50;;
23346;SDS011;36852;45.466;11.066;2023-02-01T11:21:30;108.52;;;63.68;;
23346;SDS011;36852;45.466;11.066;2023-02-01T11:24:00;113.83;;;62.93;;
23346;SDS011;36852;45.466;11.066;2023-02-01T11:26:30;116.33;;;63.02;;
23346;SDS011;36852;45.466;11.066;2023-02-01T11:29:04;112.22;;;63.95;;
23346;SDS011;36852;45.466;11.066;2023-02-01T11:34:25;111.32;;;61.13;;
23346;SDS011;36852;45.466;11.066;2023-02-01T11:39:54;109.87;;;63.17;;
23346;SDS011;36852;45.466;11.066;2023-02-01T11:42:27;109.85;;;58.45;;
23346;SDS011;36852;45.466;11.066;2023-02-01T11:45:17;102.02;;;56.92;;
23346;SDS011;36852;45.466;11.066;2023-02-01T11:50:46;108.55;;;60.98;;
23346;SDS011;36852;45.466;11.066;2023-02-01T12:07:20;110.63;;;59.65;;
23346;SDS011;36852;45.466;11.066;2023-02-01T12:12:52;111.37;;;61.85;;
23346;SDS011;36852;45.466;11.066;2023-02-01T12:21:27;107.78;;;59.03;;
23346;SDS011;36852;45.466;11.066;2023-02-01T12:24:01;100.07;;;57.05;;
23346;SDS011;36852;45.466;11.066;2023-02-01T12:26:55;107.67;;;59.38;;
23346;SDS011;36852;45.466;11.066;2023-02-01T12:32:51;102.55;;;59.73;;
23346;SDS011;36852;45.466;11.066;2023-02-01T12:38:41;103.53;;;60.98;;
23346;SDS011;36852;45.466;11.066;2023-02-01T12:44:00;103.80;;;57.08;;
23346;SDS011;36852;45.466;11.066;2023-02-01T12:46:35;99.45;;;60.90;;
23346;SDS011;36852;45.466;11.066;2023-02-01T12:49:27;107.67;;;60.45;;
23346;SDS011;36852;45.466;11.066;2023-02-01T12:52:02;99.58;;;59.98;;
23346;SDS011;36852;45.466;11.066;2023-02-01T12:54:37;104.55;;;61.63;;
23346;SDS011;36852;45.466;11.066;2023-02-01T12:57:04;101.10;;;59.67;;
23346;SDS011;36852;45.466;11.066;2023-02-01T12:59:36;99.37;;;60.08;;
23346;SDS011;36852;45.466;11.066;2023-02-01T13:02:20;103.67;;;59.60;;
23346;SDS011;36852;45.466;11.066;2023-02-01T13:05:12;96.50;;;57.45;;
23346;SDS011;36852;45.466;11.066;2023-02-01T13:11:12;100.47;;;57.70;;
23346;SDS011;36852;45.466;11.066;2023-02-01T13:13:14;101.22;;;61.48;;
23346;SDS011;36852;45.466;11.066;2023-02-01T13:15:41;103.83;;;63.90;;
23346;SDS011;36852;45.466;11.066;2023-02-01T13:18:13;101.53;;;60.40;;
23346;SDS011;36852;45.466;11.066;2023-02-01T13:23:35;104.60;;;60.20;;
23346;SDS011;36852;45.466;11.066;2023-02-01T13:26:05;97.35;;;58.23;;
23346;SDS011;36852;45.466;11.066;2023-02-01T13:28:44;90.75;;;58.35;;
23346;SDS011;36852;45.466;11.066;2023-02-01T13:42:51;92.12;;;57.73;;
23346;SDS011;36852;45.466;11.066;2023-02-01T13:45:25;97.33;;;60.80;;
23346;SDS011;36852;45.466;11.066;2023-02-01T13:50:39;94.52;;;59.00;;
23346;SDS011;36852;45.466;11.066;2023-02-01T13:55:44;102.12;;;59.48;;
23346;SDS011;36852;45.466;11.066;2023-02-01T13:58:48;99.77;;;60.20;;
23346;SDS011;36852;45.466;11.066;2023-02-01T14:03:57;92.17;;;59.67;;
23346;SDS011;36852;45.466;11.066;2023-02-01T14:11:43;89.85;;;59.80;;
23346;SDS011;36852;45.466;11.066;2023-02-01T14:19:30;86.02;;;59.42;;
23346;SDS011;36852;45.466;11.066;2023-02-01T14:22:00;84.05;;;57.93;;
23346;SDS011;36852;45.466;11.066;2023-02-01T14:24:50;88.03;;;57.50;;
23346;SDS011;36852;45.466;11.066;2023-02-01T14:27:22;87.90;;;59.63;;
23346;SDS011;36852;45.466;11.066;2023-02-01T14:29:59;91.87;;;60.90;;
23346;SDS011;36852;45.466;11.066;2023-02-01T14:32:30;85.22;;;60.70;;
23346;SDS011;36852;45.466;11.066;2023-02-01T14:35:02;86.40;;;60.40;;
23346;SDS011;36852;45.466;11.066;2023-02-01T14:37:39;85.60;;;58.73;;
23346;SDS011;36852;45.466;11.066;2023-02-01T14:47:52;82.15;;;59.80;;
23346;SDS011;36852;45.466;11.066;2023-02-01T14:50:36;89.83;;;61.42;;
23346;SDS011;36852;45.466;11.066;2023-02-01T15:09:20;80.55;;;60.33;;
23346;SDS011;36852;45.466;11.066;2023-02-01T15:11:57;84.75;;;58.75;;
23346;SDS011;36852;45.466;11.066;2023-02-01T15:17:21;82.50;;;59.00;;
23346;SDS011;36852;45.466;11.066;2023-02-01T15:19:55;88.55;;;60.90;;
23346;SDS011;36852;45.466;11.066;2023-02-01T15:22:25;86.57;;;59.42;;
23346;SDS011;36852;45.466;11.066;2023-02-01T15:24:56;86.82;;;60.08;;
23346;SDS011;36852;45.466;11.066;2023-02-01T15:27:26;95.35;;;62.35;;
23346;SDS011;36852;45.466;11.066;2023-02-01T15:30:12;90.62;;;63.83;;
23346;SDS011;36852;45.466;11.066;2023-02-01T15:32:46;88.50;;;60.98;;
23346;SDS011;36852;45.466;11.066;2023-02-01T15:41:30;84.50;;;61.00;;
23346;SDS011;36852;45.466;11.066;2023-02-01T15:46:31;97.00;;;63.70;;
23346;SDS011;36852;45.466;11.066;2023-02-01T15:51:37;90.77;;;60.33;;
23346;SDS011;36852;45.466;11.066;2023-02-01T15:54:05;91.57;;;59.77;;
23346;SDS011;36852;45.466;11.066;2023-02-01T15:56:41;97.02;;;62.45;;
23346;SDS011;36852;45.466;11.066;2023-02-01T15:59:17;98.70;;;61.37;;
23346;SDS011;36852;45.466;11.066;2023-02-01T16:01:48;94.05;;;63.10;;
23346;SDS011;36852;45.466;11.066;2023-02-01T16:06:52;98.42;;;61.28;;
23346;SDS011;36852;45.466;11.066;2023-02-01T16:09:25;95.07;;;59.35;;
23346;SDS011;36852;45.466;11.066;2023-02-01T16:15:08;100.35;;;60.73;;
23346;SDS011;36852;45.466;11.066;2023-02-01T16:17:36;97.53;;;59.20;;
23346;SDS011;36852;45.466;11.066;2023-02-01T16:20:05;98.65;;;58.90;;
23346;SDS011;36852;45.466;11.066;2023-02-01T16:22:34;102.07;;;61.18;;
23346;SDS011;36852;45.466;11.066;2023-02-01T16:25:02;97.60;;;59.08;;
23346;SDS011;36852;45.466;11.066;2023-02-01T16:27:30;101.78;;;59.90;;
23346;SDS011;36852;45.466;11.066;2023-02-01T16:30:01;98.55;;;60.33;;
23346;SDS011;36852;45.466;11.066;2023-02-01T16:32:29;112.88;;;60.25;;
23346;SDS011;36852;45.466;11.066;2023-02-01T16:34:57;104.07;;;61.95;;
23346;SDS011;36852;45.466;11.066;2023-02-01T16:37:25;102.82;;;60.75;;
23346;SDS011;36852;45.466;11.066;2023-02-01T16:39:55;100.47;;;58.40;;
23346;SDS011;36852;45.466;11.066;2023-02-01T16:42:23;100.02;;;59.55;;
23346;SDS011;36852;45.466;11.066;2023-02-01T16:44:51;99.00;;;58.63;;
23346;SDS011;36852;45.466;11.066;2023-02-01T16:47:20;100.87;;;58.35;;
23346;SDS011;36852;45.466;11.066;2023-02-01T16:49:50;100.60;;;60.85;;
23346;SDS011;36852;45.466;11.066;2023-02-01T16:52:18;100.12;;;58.90;;
23346;SDS011;36852;45.466;11.066;2023-02-01T16:54:49;107.15;;;59.45;;
23346;SDS011;36852;45.466;11.066;2023-02-01T16:59:58;103.47;;;60.08;;
23346;SDS011;36852;45.466;11.066;2023-02-01T17:02:30;105.45;;;60.25;;
23346;SDS011;36852;45.466;11.066;2023-02-01T17:04:58;100.53;;;59.75;;
23346;SDS011;36852;45.466;11.066;2023-02-01T17:07:26;97.67;;;56.35;;
23346;SDS011;36852;45.466;11.066;2023-02-01T17:09:54;101.70;;;56.92;;
23346;SDS011;36852;45.466;11.066;2023-02-01T17:12:23;104.45;;;57.08;;
23346;SDS011;36852;45.466;11.066;2023-02-01T17:14:57;107.80;;;57.40;;
23346;SDS011;36852;45.466;11.066;2023-02-01T17:17:33;115.88;;;65.05;;
23346;SDS011;36852;45.466;11.066;2023-02-01T17:20:05;108.85;;;59.53;;
23346;SDS011;36852;45.466;11.066;2023-02-01T17:22:34;104.12;;;58.70;;
23346;SDS011;36852;45.466;11.066;2023-02-01T17:27:49;100.72;;;58.40;;
23346;SDS011;36852;45.466;11.066;2023-02-01T17:30:17;104.72;;;59.03;;
23346;SDS011;36852;45.466;11.066;2023-02-01T17:32:44;103.85;;;56.65;;
23346;SDS011;36852;45.466;11.066;2023-02-01T17:35:15;99.52;;;56.02;;
23346;SDS011;36852;45.466;11.066;2023-02-01T17:37:50;112.88;;;59.23;;
23346;SDS011;36852;45.466;11.066;2023-02-01T17:40:19;105.03;;;59.35;;
23346;SDS011;36852;45.466;11.066;2023-02-01T17:42:46;94.97;;;56.33;;
23346;SDS011;36852;45.466;11.066;2023-02-01T17:48:04;102.02;;;59.23;;
23346;SDS011;36852;45.466;11.066;2023-02-01T17:50:34;106.45;;;57.20;;
23346;SDS011;36852;45.466;11.066;2023-02-01T17:55:41;105.52;;;57.23;;
23346;SDS011;36852;45.466;11.066;2023-02-01T17:58:11;98.17;;;55.55;;
23346;SDS011;36852;45.466;11.066;2023-02-01T18:00:41;102.80;;;58.98;;
23346;SDS011;36852;45.466;11.066;2023-02-01T18:03:18;109.60;;;59.58;;
23346;SDS011;36852;45.466;11.066;2023-02-01T18:05:44;108.60;;;59.03;;
23346;SDS011;36852;45.466;11.066;2023-02-01T18:08:14;104.60;;;57.33;;
23346;SDS011;36852;45.466;11.066;2023-02-01T18:10:49;103.27;;;57.93;;
23346;SDS011;36852;45.466;11.066;2023-02-01T18:13:19;102.80;;;57.83;;
23346;SDS011;36852;45.466;11.066;2023-02-01T18:15:47;97.40;;;54.85;;
23346;SDS011;36852;45.466;11.066;2023-02-01T18:18:15;102.42;;;55.45;;
23346;SDS011;36852;45.466;11.066;2023-02-01T18:20:44;100.82;;;53.78;;
23346;SDS011;36852;45.466;11.066;2023-02-01T18:23:18;95.20;;;54.73;;
23346;SDS011;36852;45.466;11.066;2023-02-01T18:25:48;97.53;;;55.60;;
23346;SDS011;36852;45.466;11.066;2023-02-01T18:28:17;97.33;;;52.70;;
23346;SDS011;36852;45.466;11.066;2023-02-01T18:30:47;98.33;;;55.65;;
23346;SDS011;36852;45.466;11.066;2023-02-01T18:33:18;98.78;;;55.08;;
23346;SDS011;36852;45.466;11.066;2023-02-01T18:35:47;95.90;;;55.03;;
23346;SDS011;36852;45.466;11.066;2023-02-01T18:38:15;95.47;;;53.65;;
23346;SDS011;36852;45.466;11.066;2023-02-01T18:40:47;91.02;;;51.33;;
23346;SDS011;36852;45.466;11.066;2023-02-01T18:43:17;89.25;;;51.60;;
23346;SDS011;36852;45.466;11.066;2023-02-01T18:45:47;94.28;;;52.48;;
23346;SDS011;36852;45.466;11.066;2023-02-01T18:48:16;97.85;;;53.38;;
23346;SDS011;36852;45.466;11.066;2023-02-01T18:50:45;89.28;;;51.90;;
23346;SDS011;36852;45.466;11.066;2023-02-01T18:53:16;90.60;;;50.88;;
23346;SDS011;36852;45.466;11.066;2023-02-01T18:58:38;103.12;;;54.03;;
23346;SDS011;36852;45.466;11.066;2023-02-01T19:01:13;111.57;;;59.50;;
23346;SDS011;36852;45.466;11.066;2023-02-01T19:03:45;110.50;;;60.15;;
23346;SDS011;36852;45.466;11.066;2023-02-01T19:06:15;98.97;;;55.10;;
23346;SDS011;36852;45.466;11.066;2023-02-01T19:08:44;92.02;;;51.85;;
23346;SDS011;36852;45.466;11.066;2023-02-01T19:11:12;102.87;;;54.85;;
23346;SDS011;36852;45.466;11.066;2023-02-01T19:16:22;126.82;;;71.57;;
23346;SDS011;36852;45.466;11.066;2023-02-01T19:18:53;128.68;;;75.80;;
23346;SDS011;36852;45.466;11.066;2023-02-01T19:21:20;150.25;;;82.08;;
23346;SDS011;36852;45.466;11.066;2023-02-01T19:23:48;116.30;;;66.10;;